Time;durP1;ratioP1;P1;durP2;ratioP2;P2;SDS_P1;SDS_P2;PMS_P1;PMS_P2;Temp;Humidity;BMP_temperature;BMP_pressure;BME280_temperature;BME280_humidity;BME280_pressure;Samples;Min_cycle;Max_cycle;Signal;HPM_P1;HPM_P2
2024/01/28 00:00:53;;;;;;;32.53;4.47;;;;;;;2.85;100.00;103011.16;4981095;28;20038;-84
2024/01/28 00:03:20;;;;;;;33.17;5.13;;;4.30;99.90;;;2.78;100.00;103015.34;4996881;28;20042;-83
2024/01/28 00:05:47;;;;;;;33.20;5.75;;;4.30;99.90;;;2.72;100.00;103019.53;5006162;28;20571;-83
2024/01/28 00:08:16;;;;;;;33.88;4.55;;;;;;;2.65;100.00;103014.19;4989253;28;20072;-84
2024/01/28 00:10:47;;;;;;;30.63;4.68;;;4.20;99.90;;;2.56;100.00;103013.13;4998256;28;20050;-83
2024/01/28 00:13:13;;;;;;;42.15;5.60;;;;;;;2.49;100.00;103011.22;5002658;28;20041;-84
2024/01/28 00:15:49;;;;;;;28.42;4.70;;;4.00;99.90;;;2.42;100.00;103015.41;4997907;28;20029;-83
2024/01/28 00:18:27;;;;;;;36.00;5.75;;;3.90;99.90;;;2.37;100.00;103012.66;4997654;28;20500;-84
2024/01/28 00:20:56;;;;;;;29.85;5.25;;;3.90;99.90;;;2.36;100.00;103012.66;5008322;28;20040;-84
2024/01/28 00:23:27;;;;;;;41.15;6.25;;;;;;;2.34;100.00;103011.75;5007179;28;20099;-83
2024/01/28 00:25:57;;;;;;;33.83;5.32;;;;;;;2.31;100.00;103016.84;4996960;28;20052;-83
2024/01/28 00:28:25;;;;;;;31.23;6.20;;;;;;;2.27;100.00;103010.72;4997541;28;20025;-84
2024/01/28 00:30:57;;;;;;;36.08;5.53;;;3.80;99.90;;;2.20;100.00;103008.78;4997502;28;20070;-84
2024/01/28 00:33:28;;;;;;;33.00;6.22;;;3.70;99.90;;;2.15;100.00;103006.06;5002514;28;20125;-83
2024/01/28 00:35:59;;;;;;;42.67;6.93;;;3.70;99.90;;;2.10;100.00;102999.91;5001015;28;20562;-83
2024/01/28 00:38:31;;;;;;;38.38;6.35;;;;;;;2.05;100.00;102999.78;5042805;28;20411;-81
2024/01/28 00:41:07;;;;;;;26.33;5.75;;;3.60;99.90;;;2.02;100.00;102996.22;5052468;28;20060;-83
2024/01/28 00:43:35;;;;;;;36.97;6.03;;;;;;;1.97;100.00;103001.31;5036526;28;20033;-84
2024/01/28 00:46:01;;;;;;;43.28;6.05;;;3.50;99.90;;;1.94;100.00;102997.75;5054057;28;20037;-84
2024/01/28 00:48:34;;;;;;;32.42;6.05;;;3.50;99.90;;;1.94;100.00;102997.75;5053709;28;20131;-83
2024/01/28 00:51:00;;;;;;;28.00;6.47;;;3.50;99.90;;;1.94;100.00;103008.13;5055029;28;20029;-83
2024/01/28 00:53:26;;;;;;;40.38;6.32;;;3.40;99.90;;;1.88;100.00;103001.09;5037739;28;20461;-83
2024/01/28 00:56:03;;;;;;;39.33;6.70;;;3.40;99.90;;;1.83;100.00;103000.94;5054705;28;20036;-83
2024/01/28 00:58:29;;;;;;;39.00;6.05;;;3.40;99.90;;;1.77;100.00;103005.09;5051067;28;20059;-82
2024/01/28 01:00:56;;;;;;;30.88;6.13;;;3.30;99.90;;;1.73;100.00;103009.34;5053327;28;20033;-82
2024/01/28 01:03:32;;;;;;;46.28;6.25;;;3.30;99.90;;;1.69;100.00;103017.91;5053869;28;20024;-83
2024/01/28 01:05:58;;;;;;;37.50;6.07;;;3.30;99.90;;;1.62;100.00;103009.06;5036576;28;20574;-82
2024/01/28 01:08:24;;;;;;;47.28;7.40;;;3.20;99.90;;;1.59;100.00;103021.06;5052953;28;20560;-82
2024/01/28 01:10:58;;;;;;;40.08;7.93;;;3.40;99.90;;;1.53;100.00;103010.50;5053043;28;20021;-82
2024/01/28 01:13:26;;;;;;;37.50;7.30;;;3.10;99.90;;;1.49;100.00;103012.16;5047658;28;20024;-83
2024/01/28 01:15:52;;;;;;;40.47;8.27;;;3.10;99.90;;;1.47;100.00;103018.13;5053320;28;20775;-84
2024/01/28 01:18:17;;;;;;;37.15;6.95;;;3.10;99.90;;;1.47;100.00;103018.13;5036594;28;20127;-81
2024/01/28 01:20:52;;;;;;;39.30;7.63;;;3.00;99.90;;;1.46;100.00;103018.97;5036117;28;20025;-81
2024/01/28 01:23:18;;;;;;;50.45;7.75;;;3.00;99.90;;;1.44;100.00;103027.59;5040396;28;20095;-82
2024/01/28 01:25:55;;;;;;;34.22;8.13;;;3.00;99.90;;;1.44;100.00;103026.72;5052775;28;20036;-84
2024/01/28 01:28:21;;;;;;;51.22;7.93;;;;;;;1.42;100.00;103029.25;5051047;28;20051;-82
2024/01/28 01:30:47;;;;;;;44.35;7.45;;;3.00;99.90;;;1.42;100.00;103036.19;5051108;28;20041;-83
2024/01/28 01:33:20;;;;;;;55.58;9.20;;;3.00;99.90;;;1.39;100.00;103030.91;5054022;28;20040;-84
2024/01/28 01:35:46;;;;;;;42.35;8.05;;;3.00;99.90;;;1.39;100.00;103046.50;5042630;28;20028;-83
2024/01/28 01:38:15;;;;;;;37.35;8.02;;;2.90;99.90;;;1.34;100.00;103037.66;5052477;28;20037;-84
2024/01/28 01:40:41;;;;;;;46.42;8.57;;;2.90;99.90;;;1.29;100.00;103034.94;5034690;28;20029;-84
2024/01/28 01:43:15;;;;;;;43.03;9.13;;;;;;;1.28;100.00;103030.59;5053417;28;20036;-83
2024/01/28 01:45:55;;;;;;;40.42;9.07;;;2.80;99.90;;;1.24;100.00;103031.34;5052597;28;20120;-84
2024/01/28 01:48:26;;;;;;;53.70;9.70;;;2.80;99.90;;;1.20;100.00;103026.91;5033991;28;20078;-83
2024/01/28 01:51:04;;;;;;;46.15;8.43;;;2.70;99.90;;;1.16;100.00;103028.53;5064950;28;20029;-85
2024/01/28 01:53:38;;;;;;;60.97;8.90;;;2.70;99.90;;;1.11;100.00;103018.84;5036925;28;20063;-82
2024/01/28 01:56:08;;;;;;;50.75;9.10;;;;;;;1.09;100.00;103020.53;5052671;28;20029;-84
2024/01/28 01:58:46;;;;;;;54.30;9.15;;;2.70;99.90;;;1.04;100.00;103020.41;5044215;28;20060;-85
2024/01/28 02:01:36;;;;;;;51.28;10.77;;;2.60;99.90;;;1.02;100.00;103020.34;5053199;28;20113;-84
2024/01/28 02:04:09;;;;;;;43.95;9.80;;;2.60;99.90;;;1.00;100.00;103022.00;5053108;28;20339;-84
2024/01/28 02:06:58;;;;;;;52.63;9.85;;;2.50;99.90;;;0.98;100.00;103015.91;5050684;28;20033;-83
2024/01/28 02:09:27;;;;;;;43.17;9.20;;;2.60;99.90;;;0.99;100.00;103022.88;5012425;28;20033;-84
2024/01/28 02:11:53;;;;;;;52.22;9.75;;;2.50;99.90;;;0.94;100.00;103021.81;5019733;28;20033;-83
2024/01/28 02:14:29;;;;;;;52.40;9.20;;;2.50;99.90;;;0.94;100.00;103026.13;5012074;28;20038;-83
2024/01/28 02:16:59;;;;;;;50.00;10.75;;;2.50;99.90;;;0.91;100.00;103026.06;5014499;28;20069;-84
2024/01/28 02:19:27;;;;;;;47.10;9.70;;;2.50;99.90;;;0.89;100.00;103019.94;4999656;28;20089;-83
2024/01/28 02:21:56;;;;;;;49.90;9.85;;;2.40;99.90;;;0.87;100.00;103019.88;5016353;28;20022;-85
2024/01/28 02:24:22;;;;;;;59.53;11.20;;;;;;;0.85;100.00;103016.38;4998312;28;20466;-84
2024/01/28 02:26:48;;;;;;;48.78;9.75;;;2.40;99.90;;;0.82;100.00;103018.84;5015683;28;20566;-82
2024/01/28 02:29:21;;;;;;;55.45;9.73;;;2.40;99.90;;;0.80;100.00;103016.22;5005500;28;20048;-84
2024/01/28 02:31:46;;;;;;;49.30;9.73;;;2.40;99.90;;;0.80;100.00;103017.94;5024811;28;20045;-83
2024/01/28 02:34:13;;;;;;;57.35;10.85;;;;;;;0.78;100.00;103009.25;5015989;28;20045;-84
2024/01/28 02:36:38;;;;;;;45.63;9.27;;;2.30;99.90;;;0.75;100.00;102999.63;5016213;28;20030;-82
2024/01/28 02:39:04;;;;;;;45.03;10.13;;;2.30;99.90;;;0.73;100.00;103005.63;5024805;28;20137;-84
2024/01/28 02:41:38;;;;;;;53.70;10.93;;;2.30;99.90;;;0.72;100.00;103004.75;5036681;28;20036;-82
2024/01/28 02:44:04;;;;;;;48.60;10.52;;;2.30;99.90;;;0.73;100.00;103010.78;5049609;28;20041;-84
2024/01/28 02:46:30;;;;;;;50.63;10.55;;;2.30;99.90;;;0.69;100.00;102999.47;5050839;28;20032;-82
2024/01/28 02:48:56;;;;;;;71.13;12.10;;;;;;;0.68;100.00;102997.69;5035877;28;20028;-83
2024/01/28 02:51:32;;;;;;;;;;;;;;;;;;;;;
2024/01/28 02:53:58;;;;;;;53.30;10.95;;;2.20;99.90;;;0.66;100.00;103004.53;5049956;28;20390;-82
2024/01/28 02:56:24;;;;;;;61.05;11.90;;;2.20;99.90;;;0.64;100.00;103001.03;5052693;28;20021;-83
2024/01/28 02:58:59;;;;;;;50.13;11.52;;;2.20;99.90;;;0.64;100.00;103000.16;5033451;28;20387;-83
2024/01/28 03:01:27;;;;;;;50.40;12.05;;;2.20;99.90;;;0.66;100.00;103003.66;5034670;28;20032;-83
2024/01/28 03:03:53;;;;;;;47.35;11.90;;;2.20;99.90;;;0.65;100.00;102997.63;5045466;28;20104;-83
2024/01/28 03:06:19;;;;;;;56.60;12.27;;;2.30;99.90;;;0.72;100.00;103003.88;5035813;28;20113;-81
2024/01/28 03:08:48;;;;;;;54.30;11.98;;;;;;;0.72;100.00;102996.97;5040680;28;20425;-83
2024/01/28 03:11:16;;;;;;;85.45;13.52;;;2.30;99.90;;;0.74;100.00;102992.69;5057542;28;20025;-82
2024/01/28 03:14:10;;;;;;;60.63;14.02;;;2.30;99.90;;;0.76;100.00;102990.16;5054306;28;20029;-82
2024/01/28 03:16:35;;;;;;;49.45;12.63;;;2.30;99.90;;;0.74;100.00;102989.22;5050482;28;20044;-82
2024/01/28 03:19:01;;;;;;;52.58;13.40;;;2.30;99.90;;;0.70;100.00;102987.38;5057068;28;20029;-83
2024/01/28 03:21:27;;;;;;;72.95;14.20;;;2.30;99.90;;;0.68;100.00;102986.44;5038347;28;20025;-82
2024/01/28 03:24:16;;;;;;;64.10;14.93;;;2.30;99.90;;;0.66;100.00;102982.94;5056927;28;20100;-85
2024/01/28 03:26:44;;;;;;;64.30;13.02;;;2.20;99.90;;;0.63;100.00;102988.91;5046129;28;20037;-82
2024/01/28 03:29:11;;;;;;;48.13;13.10;;;2.20;99.90;;;0.66;100.00;102990.72;5036564;28;20132;-83
2024/01/28 03:31:38;;;;;;;46.17;11.82;;;2.20;99.90;;;0.66;100.00;102986.41;5040560;28;20037;-82
2024/01/28 03:34:10;;;;;;;49.70;12.40;;;2.20;99.90;;;0.65;100.00;102983.75;5056850;28;20097;-82
2024/01/28 03:36:36;;;;;;;60.65;13.45;;;2.20;99.90;;;0.64;100.00;102990.66;5039270;28;20491;-82
2024/01/28 03:39:04;;;;;;;68.45;13.13;;;;;;;0.64;100.00;102994.97;5038756;28;20120;-83
2024/01/28 03:41:39;;;;;;;60.67;13.30;;;;;;;0.64;100.00;102998.44;5057349;28;20032;-85
2024/01/28 03:44:05;;;;;;;64.35;13.30;;;2.20;99.90;;;0.62;100.00;102997.50;5049477;28;20036;-82
2024/01/28 03:46:42;;;;;;;;;;;;;;;;;;;;;
2024/01/28 03:49:08;;;;;;;76.05;13.80;;;2.20;99.90;;;0.54;100.00;102994.69;5055387;28;20033;-82
2024/01/28 03:51:34;;;;;;;51.72;13.50;;;2.10;99.90;;;0.48;100.00;102994.50;5057526;28;20029;-82
2024/01/28 03:54:00;;;;;;;46.53;12.52;;;2.10;99.90;;;0.45;100.00;102993.50;5057419;28;20033;-82
2024/01/28 03:56:37;;;;;;;46.03;11.90;;;2.00;99.90;;;0.39;100.00;103000.25;5039688;28;20025;-82
2024/01/28 03:59:03;;;;;;;41.95;11.85;;;;;;;0.30;100.00;103006.84;5056349;28;20112;-83
2024/01/28 04:01:39;;;;;;;44.17;11.45;;;1.90;99.90;;;0.23;100.00;103010.09;5058226;28;20372;-82
2024/01/28 04:04:08;;;;;;;47.47;12.35;;;1.80;99.90;;;0.15;100.00;103002.03;5057746;28;20029;-82
2024/01/28 04:06:33;;;;;;;46.03;11.63;;;1.80;99.90;;;0.12;100.00;103002.81;5039030;28;20092;-83
2024/01/28 04:09:08;;;;;;;56.95;13.43;;;;;;;0.10;100.00;103001.91;5058492;28;20033;-83
2024/01/28 04:11:37;;;;;;;72.53;15.13;;;;;;;0.10;100.00;103001.03;5057617;28;20075;-83
2024/01/28 04:14:26;;;;;;;64.93;15.25;;;;;;;0.11;100.00;102993.31;5050768;28;20060;-84
2024/01/28 04:16:56;;;;;;;69.90;15.82;;;1.70;99.90;;;0.13;100.00;103002.03;5048038;28;20136;-83
2024/01/28 04:19:33;;;;;;;76.60;16.15;;;;;;;0.15;100.00;103002.03;5057159;28;20147;-84
2024/01/28 04:21:59;;;;;;;62.63;15.45;;;1.70;99.90;;;0.16;100.00;102996.91;5058031;28;20128;-82
2024/01/28 04:24:25;;;;;;;57.50;16.15;;;;;;;0.18;100.00;102995.25;5058501;28;20021;-83
2024/01/28 04:27:02;;;;;;;51.00;15.55;;;;;;;0.22;100.00;103001.44;5057118;28;20029;-84
2024/01/28 04:29:28;;;;;;;51.25;14.20;;;1.80;99.90;;;0.19;100.00;102996.13;5055806;28;20036;-82
2024/01/28 04:31:56;;;;;;;69.18;15.15;;;1.80;99.90;;;0.17;100.00;102993.53;5040395;28;20044;-83
2024/01/28 04:34:28;;;;;;;68.63;16.45;;;1.70;99.90;;;0.14;100.00;102998.59;5057663;28;20033;-83
2024/01/28 04:36:54;;;;;;;76.03;17.17;;;;;;;0.12;100.00;103001.97;5058096;28;20435;-84
2024/01/28 04:39:28;;;;;;;54.08;15.43;;;;;;;0.11;100.00;103000.19;5056175;28;20075;-83
2024/01/28 04:41:57;;;;;;;48.72;13.77;;;;;;;0.08;100.00;103011.31;5057065;28;20123;-84
2024/01/28 04:44:47;;;;;;;71.75;15.40;;;1.70;99.90;;;0.05;100.00;102994.81;5057317;28;20048;-84
2024/01/28 04:47:19;;;;;;;73.80;16.70;;;;;;;0.01;100.00;103004.19;5056746;28;20049;-83
2024/01/28 04:50:09;;;;;;;71.85;15.13;;;;;;;-0.02;100.00;103015.34;5058113;28;20048;-83
2024/01/28 04:52:37;;;;;;;52.55;14.80;;;;;;;-0.04;100.00;103001.44;5064045;28;20041;-83
2024/01/28 04:55:04;;;;;;;63.67;13.43;;;1.60;99.90;;;-0.05;100.00;103006.56;5055221;28;20040;-84
2024/01/28 04:57:38;;;;;;;56.55;14.07;;;1.50;99.90;;;-0.09;100.00;103000.41;5058323;28;20281;-82
2024/01/28 05:00:10;;;;;;;52.78;13.65;;;1.50;99.90;;;-0.12;100.00;103009.78;5055812;28;20068;-83
2024/01/28 05:02:46;;;;;;;53.85;13.63;;;1.50;99.90;;;-0.15;100.00;103012.25;5047119;28;20032;-84
2024/01/28 05:05:12;;;;;;;;;;;1.50;99.90;;;-0.23;100.00;103012.00;5114999;22;20064;-80
2024/01/28 05:07:39;;;;;;;45.03;12.27;;;1.30;99.90;;;-0.30;100.00;103012.59;5031968;28;19916;-79
2024/01/28 05:10:09;;;;;;;45.03;12.88;;;1.30;99.90;;;-0.34;100.00;103013.34;5050236;28;20039;-81
2024/01/28 05:12:34;;;;;;;57.83;13.07;;;1.20;99.90;;;-0.37;100.00;103008.06;5047539;28;20028;-81
2024/01/28 05:15:01;;;;;;;68.97;15.23;;;1.20;99.90;;;-0.40;100.00;103003.66;5034129;28;20025;-81
2024/01/28 05:17:27;;;;;;;67.18;15.77;;;1.20;99.90;;;-0.41;100.00;103004.50;5048157;28;20498;-81
2024/01/28 05:19:52;;;;;;;48.05;13.43;;;1.20;99.90;;;-0.42;100.00;103005.31;5032574;28;20037;-80
2024/01/28 05:22:26;;;;;;;72.40;15.93;;;1.20;99.90;;;-0.44;100.00;103007.81;5033990;28;20487;-79
2024/01/28 05:24:51;;;;;;;54.85;14.40;;;1.10;99.90;;;-0.47;100.00;103007.72;5045847;28;20060;-81
2024/01/28 05:27:17;;;;;;;55.35;15.57;;;1.10;99.90;;;-0.48;100.00;103016.31;5050694;28;20025;-80
2024/01/28 05:29:43;;;;;;;65.47;13.85;;;1.10;99.90;;;-0.49;100.00;103013.69;5033328;28;20138;-80
2024/01/28 05:32:09;;;;;;;60.25;17.00;;;1.10;99.90;;;-0.50;100.00;103014.50;5049174;28;20395;-80
2024/01/28 05:34:42;;;;;;;62.78;15.48;;;1.10;99.90;;;-0.50;100.00;103011.91;5049241;28;20112;-80
2024/01/28 05:37:09;;;;;;;64.25;15.65;;;1.10;99.90;;;-0.49;100.00;103006.78;5048889;28;20028;-80
2024/01/28 05:39:35;;;;;;;59.13;15.25;;;1.10;99.90;;;-0.47;100.00;103004.28;5048666;28;20052;-80
2024/01/28 05:42:02;;;;;;;66.60;16.35;;;1.10;99.90;;;-0.43;100.00;102998.38;5033171;28;20495;-80
2024/01/28 05:44:36;;;;;;;65.32;15.55;;;1.20;99.90;;;-0.41;100.00;102991.56;5032667;28;20067;-79
2024/01/28 05:47:03;;;;;;;52.45;15.27;;;1.20;99.90;;;-0.38;100.00;102993.34;5049785;28;20043;-80
2024/01/28 05:49:29;;;;;;;46.85;15.30;;;1.20;99.90;;;-0.36;100.00;103002.06;5050636;28;20407;-80
2024/01/28 05:52:00;;;;;;;66.45;15.98;;;1.20;99.90;;;-0.35;100.00;103001.22;5049454;28;20029;-80
2024/01/28 05:54:26;;;;;;;66.32;15.90;;;1.30;99.90;;;-0.33;100.00;103008.22;5031234;28;20025;-79
2024/01/28 05:56:52;;;;;;;56.05;16.52;;;1.30;99.90;;;-0.30;100.00;103012.59;5049830;28;20552;-80
2024/01/28 05:59:17;;;;;;;62.75;15.27;;;1.30;99.90;;;-0.25;100.00;103021.44;5030978;28;20033;-80
2024/01/28 06:01:43;;;;;;;56.60;16.70;;;1.40;99.90;;;-0.25;100.00;103019.72;5050262;28;20507;-80
2024/01/28 06:04:09;;;;;;;63.53;17.08;;;1.30;99.90;;;-0.26;100.00;103023.16;5049989;28;20120;-80
2024/01/28 06:06:43;;;;;;;70.18;15.07;;;1.30;99.90;;;-0.29;100.00;103020.44;5048139;28;20033;-81
2024/01/28 06:09:09;;;;;;;55.75;15.00;;;1.30;99.90;;;-0.33;100.00;103021.16;5048432;28;20029;-80
2024/01/28 06:11:36;;;;;;;45.63;13.52;;;1.20;99.90;;;-0.40;100.00;103014.00;5031098;28;20047;-80
2024/01/28 06:14:07;;;;;;;45.45;13.43;;;1.20;99.90;;;-0.49;100.00;103024.03;5032285;28;20390;-80
2024/01/28 06:16:32;;;;;;;49.35;14.10;;;1.10;99.90;;;-0.56;100.00;103020.34;5030780;28;20272;-79
2024/01/28 06:18:58;;;;;;;48.97;15.50;;;1.00;99.90;;;-0.60;100.00;103017.56;5047395;28;20035;-80
2024/01/28 06:21:24;;;;;;;66.38;15.90;;;1.00;99.90;;;-0.67;100.00;103014.78;5033692;28;20116;-80
2024/01/28 06:23:50;;;;;;;75.38;15.77;;;1.00;99.90;;;-0.70;100.00;103008.59;5043678;28;20732;-79
2024/01/28 06:26:18;;;;;;;88.70;28.92;;;0.90;99.90;;;-0.75;100.00;103011.03;5008153;28;20044;-79
2024/01/28 06:28:48;;;;;;;136.50;47.63;;;0.90;99.90;;;-0.75;100.00;103011.03;5030240;28;20087;-81
2024/01/28 06:31:15;;;;;;;252.77;77.90;;;0.90;99.90;;;-0.77;100.00;103014.41;5028599;28;20032;-80
2024/01/28 06:33:43;;;;;;;134.35;35.92;;;0.80;99.90;;;-0.80;100.00;103012.56;5030375;28;20083;-81
2024/01/28 06:36:09;;;;;;;215.40;62.28;;;0.80;99.90;;;-0.82;100.00;103009.06;5027875;28;20442;-79
2024/01/28 06:38:42;;;;;;;176.55;51.53;;;0.80;99.90;;;-0.84;100.00;103006.41;5047881;28;20032;-81
2024/01/28 06:41:08;;;;;;;217.27;65.80;;;0.80;99.90;;;-0.84;100.00;103010.72;5030471;28;20403;-80
2024/01/28 06:43:34;;;;;;;247.75;82.00;;;0.80;99.90;;;-0.85;100.00;103020.16;5050489;28;20097;-81
2024/01/28 06:46:00;;;;;;;163.75;49.40;;;0.80;99.90;;;-0.86;100.00;103014.94;5035750;28;20056;-80
2024/01/28 06:48:25;;;;;;;116.15;36.83;;;0.80;99.90;;;-0.88;100.00;103019.16;5050187;28;20108;-81
2024/01/28 06:50:59;;;;;;;91.63;24.55;;;0.70;99.90;;;-0.91;100.00;103019.03;5053002;28;20032;-81
2024/01/28 06:53:24;;;;;;;88.43;22.15;;;0.70;99.90;;;-0.94;100.00;103019.81;5051340;28;20017;-81
2024/01/28 06:55:53;;;;;;;76.82;17.98;;;0.70;99.90;;;-0.95;100.00;103017.16;5048754;28;20108;-81
2024/01/28 06:58:24;;;;;;;82.07;19.50;;;0.70;99.90;;;-0.95;100.00;103019.75;5034119;28;20041;-81
2024/01/28 07:00:49;;;;;;;78.47;16.98;;;0.70;99.90;;;-0.97;100.00;103018.81;5036081;28;20483;-81
2024/01/28 07:03:17;;;;;;;64.50;17.75;;;0.60;99.90;;;-0.97;100.00;103021.38;5034415;28;20124;-81
2024/01/28 07:05:45;;;;;;;75.13;17.63;;;0.60;99.90;;;-0.98;100.00;103022.22;5052833;28;20061;-81
2024/01/28 07:08:37;;;;;;;61.45;17.10;;;0.70;99.90;;;-0.98;100.00;103028.28;5048680;28;20025;-82
2024/01/28 07:11:11;;;;;;;63.45;14.27;;;0.60;99.90;;;-0.99;100.00;103020.44;5052951;28;20033;-81
2024/01/28 07:13:37;;;;;;;59.03;13.98;;;0.60;99.90;;;-0.99;100.00;103023.03;5038356;28;20032;-81
2024/01/28 07:16:03;;;;;;;59.20;15.65;;;0.70;99.90;;;-0.97;100.00;103024.88;5030903;28;20033;-82
2024/01/28 07:18:29;;;;;;;62.97;12.77;;;0.70;99.90;;;-0.95;100.00;103027.50;5017962;28;20123;-80
2024/01/28 07:20:55;;;;;;;47.85;12.48;;;0.70;99.90;;;-0.95;100.00;103022.31;5027908;28;20033;-82
2024/01/28 07:23:21;;;;;;;54.25;14.00;;;0.70;99.90;;;-0.94;100.00;103029.28;5029553;28;20037;-82
2024/01/28 07:25:56;;;;;;;62.55;13.60;;;0.70;99.90;;;-0.92;100.00;103028.50;5044658;28;20024;-80
2024/01/28 07:28:25;;;;;;;65.80;14.57;;;0.70;99.90;;;-0.91;100.00;103031.97;5048495;28;20391;-82
2024/01/28 07:30:59;;;;;;;67.25;17.02;;;0.70;99.90;;;-0.90;100.00;103028.56;5052539;28;21113;-82
2024/01/28 07:33:25;;;;;;;61.08;15.20;;;0.70;99.90;;;-0.89;100.00;103035.50;5032596;28;20031;-82
2024/01/28 07:35:51;;;;;;;53.97;14.32;;;0.70;99.90;;;-0.89;100.00;103030.31;5051368;28;20033;-81
2024/01/28 07:38:17;;;;;;;60.60;15.85;;;0.70;99.90;;;-0.91;100.00;103026.78;5049111;28;20052;-81
2024/01/28 07:40:48;;;;;;;49.95;14.02;;;0.70;99.90;;;-0.85;100.00;103043.44;5051705;28;20052;-81
2024/01/28 07:43:16;;;;;;;59.22;15.50;;;0.80;99.90;;;-0.82;100.00;103042.69;5048375;28;20033;-81
2024/01/28 07:48:33;;;;;;;59.45;17.33;;;0.90;99.90;;;-0.73;100.00;103044.75;5036304;28;20041;-81
2024/01/28 07:50:59;;;;;;;68.28;19.17;;;0.90;99.90;;;-0.74;100.00;103037.78;5048887;28;20040;-81
2024/01/28 07:53:27;;;;;;;76.85;25.77;;;0.90;99.90;;;-0.69;100.00;103041.41;5050173;28;20033;-82
2024/01/28 07:55:53;;;;;;;102.22;32.08;;;0.90;99.90;;;-0.67;100.00;103040.66;5048071;28;20112;-82
2024/01/28 07:58:26;;;;;;;58.47;21.15;;;1.00;99.90;;;-0.67;100.00;103040.66;5047057;28;20100;-81
2024/01/28 08:01:09;;;;;;;68.78;14.70;;;1.00;99.90;;;-0.63;100.00;103041.63;5049122;28;20036;-82
2024/01/28 08:03:35;;;;;;;47.83;14.30;;;1.00;99.90;;;-0.60;100.00;103039.19;5049150;28;20037;-82
2024/01/28 08:06:09;;;;;;;54.78;14.55;;;1.00;99.90;;;-0.54;100.00;103047.16;5047590;28;20074;-82
2024/01/28 08:08:37;;;;;;;44.10;14.05;;;1.10;99.90;;;-0.52;100.00;103044.63;5050736;28;20047;-82
2024/01/28 08:11:03;;;;;;;53.17;14.13;;;1.10;99.90;;;-0.52;100.00;103039.44;5047905;28;20033;-81
2024/01/28 08:13:30;;;;;;;59.03;15.13;;;1.10;99.90;;;-0.49;100.00;103052.50;5048410;28;20028;-81
2024/01/28 08:16:16;;;;;;;53.53;14.13;;;1.10;99.90;;;-0.42;100.00;103054.47;5032982;28;20067;-82
2024/01/28 08:18:42;;;;;;;47.70;15.00;;;1.20;99.90;;;-0.38;100.00;103051.19;5049465;28;20028;-82
2024/01/28 08:21:08;;;;;;;55.92;15.77;;;1.20;99.90;;;-0.33;100.00;103051.34;5051545;28;20037;-81
2024/01/28 08:23:36;;;;;;;76.63;16.05;;;1.30;99.90;;;-0.29;100.00;103037.69;5048435;28;20041;-82
2024/01/28 08:26:17;;;;;;;56.47;15.90;;;1.30;99.90;;;-0.22;100.00;103037.97;5049219;28;20059;-82
2024/01/28 08:28:48;;;;;;;57.97;15.20;;;1.40;99.90;;;-0.18;100.00;103044.13;5049017;28;20029;-83
2024/01/28 08:31:14;;;;;;;73.68;15.10;;;1.40;99.90;;;-0.13;100.00;103042.59;5048266;28;20092;-82
2024/01/28 08:33:40;;;;;;;66.40;16.05;;;1.40;99.90;;;-0.07;100.00;103039.31;5049583;28;20037;-81
2024/01/28 08:36:08;;;;;;;54.58;14.07;;;1.50;99.90;;;-0.04;100.00;103045.47;5050226;28;20037;-81
2024/01/28 08:38:48;;;;;;;60.25;13.93;;;1.50;99.90;;;0.02;100.00;103047.38;5047319;28;20025;-82
2024/01/28 08:41:23;;;;;;;55.97;15.02;;;1.60;99.90;;;0.06;100.00;103058.75;5048303;28;20031;-83
2024/01/28 08:43:49;;;;;;;50.55;14.07;;;1.60;99.90;;;0.12;100.00;103062.41;5049261;28;20491;-81
2024/01/28 08:46:16;;;;;;;56.28;14.75;;;1.70;99.90;;;0.16;100.00;103061.69;5048259;28;20044;-82
2024/01/28 08:48:49;;;;;;;64.95;15.63;;;1.70;99.90;;;0.24;100.00;103072.34;5033801;28;20040;-82
2024/01/28 08:51:15;;;;;;;51.53;14.02;;;;;;;0.28;100.00;103078.47;5049023;28;20025;-83
2024/01/28 08:53:42;;;;;;;61.50;13.75;;;1.80;99.90;;;0.28;100.00;103071.59;5049581;28;20037;-82
2024/01/28 08:56:08;;;;;;;41.30;11.70;;;1.80;99.90;;;0.32;100.00;103080.34;5050106;28;21226;-82
2024/01/28 08:58:40;;;;;;;45.78;13.15;;;1.90;99.90;;;0.37;100.00;103081.41;5050587;28;20029;-83
2024/01/28 09:01:06;;;;;;;61.95;14.20;;;1.90;99.90;;;0.44;100.00;103080.75;5051952;28;20036;-82
2024/01/28 09:03:37;;;;;;;53.55;13.05;;;2.00;99.90;;;0.50;100.00;103086.16;5051740;28;20028;-81
2024/01/28 09:06:13;;;;;;;58.38;13.73;;;2.10;99.90;;;0.57;100.00;103090.69;5051365;28;20087;-83
2024/01/28 09:08:39;;;;;;;49.05;13.32;;;2.10;99.90;;;0.64;100.00;103096.09;5052928;28;20098;-83
2024/01/28 09:11:15;;;;;;;;;;;;;;;;;;;;;
2024/01/28 09:13:44;;;;;;;58.55;13.90;;;2.30;99.90;;;0.77;100.00;103095.66;5051949;28;20028;-83
2024/01/28 09:16:19;;;;;;;58.70;14.00;;;2.30;99.90;;;0.88;100.00;103089.06;5046580;28;20045;-82
2024/01/28 09:18:48;;;;;;;51.90;13.00;;;2.40;99.90;;;0.98;100.00;103083.34;5051988;28;20087;-84
2024/01/28 09:24:07;;;;;;;66.25;14.45;;;2.60;99.90;;;1.19;100.00;103092.63;5042235;28;20131;-82
2024/01/28 09:26:48;;;;;;;52.58;14.15;;;2.70;99.90;;;1.31;100.00;103079.13;5048284;28;20037;-83
2024/01/28 09:29:38;;;;;;;59.25;15.27;;;;;;;1.44;100.00;103076.91;5047459;28;20060;-83
2024/01/28 09:32:07;;;;;;;53.75;14.27;;;2.90;99.90;;;1.55;100.00;103074.63;5040641;28;20045;-83
2024/01/28 09:34:49;;;;;;;43.20;13.98;;;3.10;99.90;;;1.64;100.00;103072.31;5049417;28;20025;-83
2024/01/28 09:37:28;;;;;;;63.58;15.13;;;3.20;99.90;;;1.77;100.00;103075.22;5050958;28;20115;-84
2024/01/28 09:40:38;;;;;;;55.78;14.20;;;3.20;99.90;;;1.89;100.00;103075.56;5049263;28;20116;-83
2024/01/28 09:43:39;;;;;;;64.18;14.18;;;3.40;99.90;;;1.99;100.00;103068.91;5013292;28;20097;-82
2024/01/28 09:46:09;;;;;;;49.35;13.95;;;3.50;99.90;;;2.11;100.00;103082.22;4990230;28;20230;-83
2024/01/28 09:48:50;;;;;;;40.58;12.77;;;3.50;99.90;;;2.16;100.00;103088.44;4996391;28;20048;-84
2024/01/28 09:51:21;;;;;;;54.38;13.80;;;3.60;99.90;;;2.19;100.00;103091.09;4982784;28;20799;-83
2024/01/28 09:53:56;;;;;;;51.88;14.65;;;3.70;99.90;;;2.29;100.00;103096.53;4980456;28;20527;-82
2024/01/28 09:56:25;;;;;;;58.00;13.98;;;3.70;99.90;;;2.42;100.00;103096.03;5010952;28;20041;-83
2024/01/28 09:59:19;;;;;;;53.28;15.10;;;3.90;99.90;;;2.60;100.00;103079.97;5011439;28;20037;-83
2024/01/28 10:02:08;;;;;;;62.67;14.55;;;4.00;99.90;;;2.75;100.00;103072.53;4997260;28;20921;-83
2024/01/28 10:04:42;;;;;;;46.47;13.27;;;4.20;99.90;;;2.92;100.00;103070.31;4997078;28;20054;-83
2024/01/28 10:07:21;;;;;;;42.97;12.60;;;;;;;3.03;100.00;103080.97;4994274;28;20520;-81
2024/01/28 10:09:56;;;;;;;50.17;13.38;;;4.40;99.90;;;3.17;100.00;103089.94;4994698;28;20581;-83
2024/01/28 10:12:49;;;;;;;50.42;12.43;;;4.50;99.90;;;3.32;100.00;103089.41;5012460;28;20073;-83
2024/01/28 10:15:32;;;;;;;51.63;12.30;;;4.70;99.90;;;3.44;100.00;103084.47;5001041;28;20057;-82
2024/01/28 10:17:59;;;;;;;48.28;11.85;;;4.80;99.90;;;3.54;100.00;103085.53;5009836;28;20113;-82
2024/01/28 10:20:48;;;;;;;47.45;12.40;;;4.90;99.90;;;3.53;100.00;103080.31;5031532;28;20042;-83
2024/01/28 10:23:17;;;;;;;48.50;12.30;;;4.90;99.90;;;3.53;100.00;103077.69;4974390;28;20101;-83
2024/01/28 10:26:09;;;;;;;47.30;12.05;;;4.90;99.90;;;3.55;100.00;103071.66;4971917;28;20042;-83
2024/01/28 10:28:38;;;;;;;53.20;11.70;;;5.00;99.90;;;3.66;100.00;103059.72;4989747;28;20505;-82
2024/01/28 10:31:17;;;;;;;48.83;11.25;;;;;;;3.78;100.00;103061.69;4974803;28;20094;-83
2024/01/28 10:34:15;;;;;;;40.95;10.82;;;5.10;99.90;;;3.82;100.00;103065.22;4988348;28;20427;-82
2024/01/28 10:37:05;;;;;;;43.25;10.25;;;5.20;99.90;;;3.88;100.00;103063.59;4984144;28;20069;-82
2024/01/28 10:39:45;;;;;;;33.47;9.55;;;5.30;99.90;;;3.93;100.00;103062.81;4931896;29;20054;-82